CKK8667 EHAM-EDDM
Flight info
| Callsign | CKK8667 |
|---|---|
| Flight time | N/A |
| Altitude | 35000 |
| Route | EDUPO Z739 MISGO DCT DOJOH DCT DODEN DCT TABUM DCT BOMBI T104 HAREM T104 ROKIL ROKIL1A |
| Aircraft | B77L/H-SDE1E2E3FGHIJ2J3J4J5M1RWXY/LB1D1 |
Departure
| Time | 2026-04-28 16:26 |
|---|---|
| Airport | Amsterdam Airport Schiphol (EHAM) |
Arrival
| Time | N/A |
|---|---|
| Airport | Munich Airport (EDDM) |
| Time | Latitude | Longitude | Altitude | Speed | Heading |
|---|---|---|---|---|---|
| 2026-04-28 16:26 | 52.27539 | 5.07660 | 9415 ft | 287 kts | 106° |
| 2026-04-28 16:26 | 52.27362 | 5.08706 | 9747 ft | 288 kts | 106° |
| 2026-04-28 16:27 | 52.24008 | 5.26948 | 12712 ft | 376 kts | 119° |
| 2026-04-28 16:27 | 52.20921 | 5.34018 | 14606 ft | 386 kts | 127° |
| 2026-04-28 16:28 | 52.19336 | 5.37508 | 15547 ft | 390 kts | 127° |
| 2026-04-28 16:28 | 52.17733 | 5.41105 | 16427 ft | 396 kts | 126° |
| 2026-04-28 16:28 | 52.16125 | 5.44763 | 17266 ft | 401 kts | 126° |
| 2026-04-28 16:28 | 52.14497 | 5.48492 | 18105 ft | 406 kts | 126° |
| 2026-04-28 16:29 | 52.11201 | 5.56039 | 19700 ft | 416 kts | 126° |
| 2026-04-28 16:29 | 52.07795 | 5.63808 | 21191 ft | 426 kts | 126° |
| 2026-04-28 16:30 | 52.06065 | 5.67731 | 21908 ft | 431 kts | 127° |
| 2026-04-28 16:30 | 52.04184 | 5.71533 | 22595 ft | 435 kts | 131° |
| 2026-04-28 16:30 | 52.02163 | 5.75213 | 23257 ft | 440 kts | 132° |
| 2026-04-28 16:30 | 52.00110 | 5.78928 | 23931 ft | 444 kts | 132° |
| 2026-04-28 16:31 | 51.98069 | 5.82697 | 24573 ft | 449 kts | 131° |
| 2026-04-28 16:31 | 51.96020 | 5.86525 | 25208 ft | 453 kts | 131° |
| 2026-04-28 16:31 | 51.93963 | 5.90364 | 25826 ft | 457 kts | 131° |
| 2026-04-28 16:31 | 51.91859 | 5.94283 | 26389 ft | 461 kts | 131° |
| 2026-04-28 16:32 | 51.89783 | 5.98144 | 26961 ft | 465 kts | 131° |
| 2026-04-28 16:32 | 51.85461 | 6.06153 | 28062 ft | 473 kts | 131° |
| 2026-04-28 16:32 | 51.83280 | 6.10164 | 28592 ft | 477 kts | 131° |
| 2026-04-28 16:33 | 51.81079 | 6.14188 | 29099 ft | 481 kts | 131° |
| 2026-04-28 16:33 | 51.79601 | 6.16886 | 29429 ft | 483 kts | 131° |
| 2026-04-28 16:33 | 51.76619 | 6.22325 | 30047 ft | 488 kts | 131° |
| 2026-04-28 16:33 | 51.74383 | 6.26406 | 30501 ft | 490 kts | 131° |
| 2026-04-28 16:34 | 51.72128 | 6.30524 | 31085 ft | 489 kts | 131° |
| 2026-04-28 16:34 | 51.69892 | 6.34602 | 31689 ft | 486 kts | 131° |
| 2026-04-28 16:34 | 51.67661 | 6.38666 | 32284 ft | 484 kts | 131° |
| 2026-04-28 16:34 | 51.65425 | 6.42731 | 32827 ft | 483 kts | 132° |
| 2026-04-28 16:35 | 51.63210 | 6.46749 | 33323 ft | 483 kts | 132° |
| 2026-04-28 16:35 | 51.60977 | 6.50791 | 33813 ft | 482 kts | 132° |
| 2026-04-28 16:35 | 51.58759 | 6.54801 | 34290 ft | 481 kts | 132° |
| 2026-04-28 16:35 | 51.56548 | 6.58791 | 34763 ft | 480 kts | 132° |
| 2026-04-28 16:36 | 51.54319 | 6.62810 | 35033 ft | 483 kts | 132° |
| 2026-04-28 16:36 | 51.52080 | 6.66842 | 35006 ft | 485 kts | 132° |
| 2026-04-28 16:36 | 51.47631 | 6.74837 | 34997 ft | 479 kts | 132° |
| 2026-04-28 16:37 | 51.43215 | 6.82748 | 35004 ft | 477 kts | 132° |
| 2026-04-28 16:38 | 51.36331 | 6.94217 | 35000 ft | 477 kts | 136° |
| 2026-04-28 16:38 | 51.31552 | 7.01547 | 35008 ft | 477 kts | 136° |
| 2026-04-28 16:39 | 51.26777 | 7.08872 | 35004 ft | 478 kts | 136° |
| 2026-04-28 16:39 | 51.21976 | 7.16262 | 35003 ft | 479 kts | 136° |
| 2026-04-28 16:40 | 51.17191 | 7.23621 | 35005 ft | 480 kts | 136° |
| 2026-04-28 16:40 | 51.12392 | 7.30979 | 35003 ft | 480 kts | 136° |
| 2026-04-28 16:41 | 51.07595 | 7.38309 | 34999 ft | 480 kts | 136° |
| 2026-04-28 16:41 | 51.02786 | 7.45634 | 35002 ft | 480 kts | 136° |
| 2026-04-28 16:42 | 50.97953 | 7.52975 | 35007 ft | 481 kts | 136° |
| 2026-04-28 16:42 | 50.93061 | 7.60381 | 35016 ft | 494 kts | 136° |
| 2026-04-28 16:43 | 50.88041 | 7.67962 | 35014 ft | 505 kts | 136° |
| 2026-04-28 16:43 | 50.82914 | 7.75677 | 35007 ft | 513 kts | 137° |
| 2026-04-28 16:44 | 50.77725 | 7.83402 | 34985 ft | 512 kts | 137° |
| 2026-04-28 16:44 | 50.72545 | 7.91075 | 35003 ft | 512 kts | 137° |
| 2026-04-28 16:45 | 50.67376 | 7.98721 | 35002 ft | 511 kts | 137° |
| 2026-04-28 16:45 | 50.62197 | 8.06355 | 34986 ft | 510 kts | 138° |
| 2026-04-28 16:46 | 50.56605 | 8.13136 | 35004 ft | 509 kts | 148° |
| 2026-04-28 16:46 | 50.50608 | 8.19042 | 35005 ft | 509 kts | 148° |
| 2026-04-28 16:47 | 50.44626 | 8.24968 | 34996 ft | 509 kts | 148° |
| 2026-04-28 16:47 | 50.38661 | 8.30950 | 35002 ft | 509 kts | 147° |
| 2026-04-28 16:48 | 50.32720 | 8.36898 | 35002 ft | 509 kts | 147° |
| 2026-04-28 16:48 | 50.27155 | 8.43735 | 35006 ft | 509 kts | 137° |
| 2026-04-28 16:49 | 50.22339 | 8.51783 | 35003 ft | 510 kts | 132° |
| 2026-04-28 16:49 | 50.17611 | 8.59938 | 34986 ft | 510 kts | 133° |